sensor_id;sensor_type;location;lat;lon;timestamp;temperature;humidity
4922;DHT22;16625;53.624;10.106;2022-11-14T00:00:59;8.80;99.90
4922;DHT22;16625;53.624;10.106;2022-11-14T00:03:26;8.20;99.90
4922;DHT22;16625;53.624;10.106;2022-11-14T00:05:55;8.60;99.90
4922;DHT22;16625;53.624;10.106;2022-11-14T00:08:23;8.20;99.90
4922;DHT22;16625;53.624;10.106;2022-11-14T00:10:50;8.40;99.90
4922;DHT22;16625;53.624;10.106;2022-11-14T00:13:19;9.50;99.90
4922;DHT22;16625;53.624;10.106;2022-11-14T00:15:48;8.10;99.90
4922;DHT22;16625;53.624;10.106;2022-11-14T00:18:19;8.10;99.90
4922;DHT22;16625;53.624;10.106;2022-11-14T00:20:50;8.00;99.90
4922;DHT22;16625;53.624;10.106;2022-11-14T00:23:17;8.00;99.90
4922;DHT22;16625;53.624;10.106;2022-11-14T00:25:45;8.00;99.90
4922;DHT22;16625;53.624;10.106;2022-11-14T00:28:12;8.00;99.90
4922;DHT22;16625;53.624;10.106;2022-11-14T00:30:40;8.60;99.90
4922;DHT22;16625;53.624;10.106;2022-11-14T00:33:18;7.90;99.90
4922;DHT22;16625;53.624;10.106;2022-11-14T00:35:51;8.50;99.90
4922;DHT22;16625;53.624;10.106;2022-11-14T00:38:27;8.40;99.90
4922;DHT22;16625;53.624;10.106;2022-11-14T00:40:54;7.90;99.90
4922;DHT22;16625;53.624;10.106;2022-11-14T00:43:21;7.90;99.90
4922;DHT22;16625;53.624;10.106;2022-11-14T00:45:51;7.90;99.90
4922;DHT22;16625;53.624;10.106;2022-11-14T00:48:18;7.90;99.90
4922;DHT22;16625;53.624;10.106;2022-11-14T00:50:45;7.80;99.90
4922;DHT22;16625;53.624;10.106;2022-11-14T00:53:12;7.90;99.90
4922;DHT22;16625;53.624;10.106;2022-11-14T00:55:42;7.80;99.90
4922;DHT22;16625;53.624;10.106;2022-11-14T00:58:12;7.80;99.90
4922;DHT22;16625;53.624;10.106;2022-11-14T01:00:39;7.70;99.90
4922;DHT22;16625;53.624;10.106;2022-11-14T01:03:07;7.70;99.90
4922;DHT22;16625;53.624;10.106;2022-11-14T01:05:38;7.70;99.90
4922;DHT22;16625;53.624;10.106;2022-11-14T01:08:05;7.70;99.90
4922;DHT22;16625;53.624;10.106;2022-11-14T01:10:32;7.60;99.90
4922;DHT22;16625;53.624;10.106;2022-11-14T01:12:59;7.60;99.90
4922;DHT22;16625;53.624;10.106;2022-11-14T01:15:26;7.60;99.90
4922;DHT22;16625;53.624;10.106;2022-11-14T01:17:53;7.60;99.90
4922;DHT22;16625;53.624;10.106;2022-11-14T01:20:21;7.60;99.90
4922;DHT22;16625;53.624;10.106;2022-11-14T01:22:54;7.60;99.90
4922;DHT22;16625;53.624;10.106;2022-11-14T01:25:22;7.60;99.90
4922;DHT22;16625;53.624;10.106;2022-11-14T01:27:52;7.60;99.90
4922;DHT22;16625;53.624;10.106;2022-11-14T01:30:19;7.60;99.90
4922;DHT22;16625;53.624;10.106;2022-11-14T01:32:45;7.60;99.90
4922;DHT22;16625;53.624;10.106;2022-11-14T01:35:12;7.60;99.90
4922;DHT22;16625;53.624;10.106;2022-11-14T01:37:40;7.60;99.90
4922;DHT22;16625;53.624;10.106;2022-11-14T01:40:08;8.20;99.90
4922;DHT22;16625;53.624;10.106;2022-11-14T01:42:35;7.50;99.90
4922;DHT22;16625;53.624;10.106;2022-11-14T01:48:02;7.60;99.90
4922;DHT22;16625;53.624;10.106;2022-11-14T01:50:29;7.60;99.90
4922;DHT22;16625;53.624;10.106;2022-11-14T01:52:57;7.60;99.90
4922;DHT22;16625;53.624;10.106;2022-11-14T01:55:24;7.50;99.90
4922;DHT22;16625;53.624;10.106;2022-11-14T01:57:51;8.30;99.90
4922;DHT22;16625;53.624;10.106;2022-11-14T02:00:36;7.50;99.90
4922;DHT22;16625;53.624;10.106;2022-11-14T02:03:03;7.50;99.90
4922;DHT22;16625;53.624;10.106;2022-11-14T02:05:30;7.50;99.90
4922;DHT22;16625;53.624;10.106;2022-11-14T02:07:59;7.50;99.90
4922;DHT22;16625;53.624;10.106;2022-11-14T02:10:26;7.50;99.90
4922;DHT22;16625;53.624;10.106;2022-11-14T02:12:56;7.50;99.90
4922;DHT22;16625;53.624;10.106;2022-11-14T02:15:38;7.50;99.90
4922;DHT22;16625;53.624;10.106;2022-11-14T02:18:05;7.50;99.90
4922;DHT22;16625;53.624;10.106;2022-11-14T02:20:36;7.50;99.90
4922;DHT22;16625;53.624;10.106;2022-11-14T02:23:08;7.50;99.90
4922;DHT22;16625;53.624;10.106;2022-11-14T02:25:35;7.50;99.90
4922;DHT22;16625;53.624;10.106;2022-11-14T02:28:03;7.50;99.90
4922;DHT22;16625;53.624;10.106;2022-11-14T02:30:31;7.40;99.90
4922;DHT22;16625;53.624;10.106;2022-11-14T02:32:58;7.40;99.90
4922;DHT22;16625;53.624;10.106;2022-11-14T02:35:25;8.00;99.90
4922;DHT22;16625;53.624;10.106;2022-11-14T02:37:53;8.10;99.90
4922;DHT22;16625;53.624;10.106;2022-11-14T02:40:20;7.40;99.90
4922;DHT22;16625;53.624;10.106;2022-11-14T02:42:47;7.50;99.90
4922;DHT22;16625;53.624;10.106;2022-11-14T02:45:14;8.30;99.90
4922;DHT22;16625;53.624;10.106;2022-11-14T02:47:47;7.40;99.90
4922;DHT22;16625;53.624;10.106;2022-11-14T02:50:15;7.40;99.90
4922;DHT22;16625;53.624;10.106;2022-11-14T02:52:45;7.40;99.90
4922;DHT22;16625;53.624;10.106;2022-11-14T02:55:16;7.50;99.90
4922;DHT22;16625;53.624;10.106;2022-11-14T02:57:46;8.10;99.90
4922;DHT22;16625;53.624;10.106;2022-11-14T03:00:19;7.40;99.90
4922;DHT22;16625;53.624;10.106;2022-11-14T03:02:52;7.40;99.90
4922;DHT22;16625;53.624;10.106;2022-11-14T03:05:19;7.40;99.90
4922;DHT22;16625;53.624;10.106;2022-11-14T03:07:46;7.40;99.90
4922;DHT22;16625;53.624;10.106;2022-11-14T03:10:13;7.40;99.90
4922;DHT22;16625;53.624;10.106;2022-11-14T03:12:41;7.40;99.90
4922;DHT22;16625;53.624;10.106;2022-11-14T03:15:09;7.40;99.90
4922;DHT22;16625;53.624;10.106;2022-11-14T03:17:36;7.40;99.90
4922;DHT22;16625;53.624;10.106;2022-11-14T03:20:04;7.40;99.90
4922;DHT22;16625;53.624;10.106;2022-11-14T03:22:31;7.40;99.90
4922;DHT22;16625;53.624;10.106;2022-11-14T03:24:58;7.70;99.90
4922;DHT22;16625;53.624;10.106;2022-11-14T03:27:25;7.40;99.90
4922;DHT22;16625;53.624;10.106;2022-11-14T03:29:53;7.30;99.90
4922;DHT22;16625;53.624;10.106;2022-11-14T03:32:20;7.30;99.90
4922;DHT22;16625;53.624;10.106;2022-11-14T03:34:47;7.30;99.90
4922;DHT22;16625;53.624;10.106;2022-11-14T03:37:14;7.70;99.90
4922;DHT22;16625;53.624;10.106;2022-11-14T03:39:41;7.30;99.90
4922;DHT22;16625;53.624;10.106;2022-11-14T03:42:08;7.30;99.90
4922;DHT22;16625;53.624;10.106;2022-11-14T03:44:35;7.30;99.90
4922;DHT22;16625;53.624;10.106;2022-11-14T03:47:06;7.70;99.90
4922;DHT22;16625;53.624;10.106;2022-11-14T03:49:32;7.30;99.90
4922;DHT22;16625;53.624;10.106;2022-11-14T03:51:59;7.30;99.90
4922;DHT22;16625;53.624;10.106;2022-11-14T03:54:26;8.00;99.90
4922;DHT22;16625;53.624;10.106;2022-11-14T03:56:53;7.30;99.90
4922;DHT22;16625;53.624;10.106;2022-11-14T03:59:20;7.30;99.90
4922;DHT22;16625;53.624;10.106;2022-11-14T04:01:47;7.30;99.90
4922;DHT22;16625;53.624;10.106;2022-11-14T04:04:15;7.30;99.90
4922;DHT22;16625;53.624;10.106;2022-11-14T04:06:42;7.30;99.90
4922;DHT22;16625;53.624;10.106;2022-11-14T04:09:11;7.30;99.90
4922;DHT22;16625;53.624;10.106;2022-11-14T04:11:38;7.30;99.90
4922;DHT22;16625;53.624;10.106;2022-11-14T04:14:05;7.30;99.90
4922;DHT22;16625;53.624;10.106;2022-11-14T04:16:31;7.30;99.90
4922;DHT22;16625;53.624;10.106;2022-11-14T04:18:58;7.30;99.90
4922;DHT22;16625;53.624;10.106;2022-11-14T04:21:26;7.30;99.90
4922;DHT22;16625;53.624;10.106;2022-11-14T04:23:56;7.70;99.90
4922;DHT22;16625;53.624;10.106;2022-11-14T04:26:23;7.30;99.90
4922;DHT22;16625;53.624;10.106;2022-11-14T04:28:50;7.30;99.90
4922;DHT22;16625;53.624;10.106;2022-11-14T04:31:17;7.30;99.90
4922;DHT22;16625;53.624;10.106;2022-11-14T04:33:46;7.30;99.90
4922;DHT22;16625;53.624;10.106;2022-11-14T04:36:12;7.50;99.90
4922;DHT22;16625;53.624;10.106;2022-11-14T04:38:41;7.30;99.90
4922;DHT22;16625;53.624;10.106;2022-11-14T04:41:07;7.30;99.90
4922;DHT22;16625;53.624;10.106;2022-11-14T04:43:35;8.50;99.90
4922;DHT22;16625;53.624;10.106;2022-11-14T04:46:02;7.30;99.90
4922;DHT22;16625;53.624;10.106;2022-11-14T04:48:56;7.30;99.90
4922;DHT22;16625;53.624;10.106;2022-11-14T04:51:23;7.20;99.90
4922;DHT22;16625;53.624;10.106;2022-11-14T04:53:57;7.20;99.90
4922;DHT22;16625;53.624;10.106;2022-11-14T04:56:24;7.20;99.90
4922;DHT22;16625;53.624;10.106;2022-11-14T04:58:51;7.80;99.90
4922;DHT22;16625;53.624;10.106;2022-11-14T05:01:23;7.60;99.90
4922;DHT22;16625;53.624;10.106;2022-11-14T05:03:50;7.20;99.90
4922;DHT22;16625;53.624;10.106;2022-11-14T05:06:16;7.20;99.90
4922;DHT22;16625;53.624;10.106;2022-11-14T05:08:43;7.20;99.90
4922;DHT22;16625;53.624;10.106;2022-11-14T05:11:14;7.90;99.90
4922;DHT22;16625;53.624;10.106;2022-11-14T05:13:42;7.20;99.90
4922;DHT22;16625;53.624;10.106;2022-11-14T05:16:10;7.20;99.90
4922;DHT22;16625;53.624;10.106;2022-11-14T05:18:37;7.20;99.90
4922;DHT22;16625;53.624;10.106;2022-11-14T05:21:04;7.20;99.90
4922;DHT22;16625;53.624;10.106;2022-11-14T05:23:32;7.20;99.90
4922;DHT22;16625;53.624;10.106;2022-11-14T05:26:00;7.10;99.90
4922;DHT22;16625;53.624;10.106;2022-11-14T05:28:31;7.20;99.90
4922;DHT22;16625;53.624;10.106;2022-11-14T05:31:02;8.40;99.90
4922;DHT22;16625;53.624;10.106;2022-11-14T05:33:32;7.70;99.90
4922;DHT22;16625;53.624;10.106;2022-11-14T05:36:03;7.10;99.90
4922;DHT22;16625;53.624;10.106;2022-11-14T05:38:36;7.10;99.90
4922;DHT22;16625;53.624;10.106;2022-11-14T05:41:05;7.10;99.90
4922;DHT22;16625;53.624;10.106;2022-11-14T05:43:37;7.10;99.90
4922;DHT22;16625;53.624;10.106;2022-11-14T05:46:07;7.10;99.90
4922;DHT22;16625;53.624;10.106;2022-11-14T05:48:35;7.10;99.90
4922;DHT22;16625;53.624;10.106;2022-11-14T05:51:03;7.10;99.90
4922;DHT22;16625;53.624;10.106;2022-11-14T05:53:31;7.10;99.90
4922;DHT22;16625;53.624;10.106;2022-11-14T05:56:02;7.10;99.90
4922;DHT22;16625;53.624;10.106;2022-11-14T05:58:30;7.10;99.90
4922;DHT22;16625;53.624;10.106;2022-11-14T06:01:05;7.10;99.90
4922;DHT22;16625;53.624;10.106;2022-11-14T06:03:34;7.80;99.90
4922;DHT22;16625;53.624;10.106;2022-11-14T06:06:03;7.10;99.90
4922;DHT22;16625;53.624;10.106;2022-11-14T06:08:30;7.00;99.90
4922;DHT22;16625;53.624;10.106;2022-11-14T06:11:01;7.00;99.90
4922;DHT22;16625;53.624;10.106;2022-11-14T06:13:35;7.00;99.90
4922;DHT22;16625;53.624;10.106;2022-11-14T06:16:05;7.00;99.90
4922;DHT22;16625;53.624;10.106;2022-11-14T06:18:34;7.00;99.90
4922;DHT22;16625;53.624;10.106;2022-11-14T06:21:04;7.00;99.90
4922;DHT22;16625;53.624;10.106;2022-11-14T06:23:31;7.00;99.90
4922;DHT22;16625;53.624;10.106;2022-11-14T06:26:09;7.00;99.90
4922;DHT22;16625;53.624;10.106;2022-11-14T06:28:38;7.00;99.90
4922;DHT22;16625;53.624;10.106;2022-11-14T06:31:06;7.00;99.90
4922;DHT22;16625;53.624;10.106;2022-11-14T06:33:34;7.00;99.90
4922;DHT22;16625;53.624;10.106;2022-11-14T06:36:03;7.00;99.90
4922;DHT22;16625;53.624;10.106;2022-11-14T06:38:31;7.00;99.90
4922;DHT22;16625;53.624;10.106;2022-11-14T06:41:02;7.40;99.90
4922;DHT22;16625;53.624;10.106;2022-11-14T06:43:33;7.60;99.90
4922;DHT22;16625;53.624;10.106;2022-11-14T06:46:01;7.00;99.90
4922;DHT22;16625;53.624;10.106;2022-11-14T06:48:35;7.00;99.90
4922;DHT22;16625;53.624;10.106;2022-11-14T06:51:03;7.00;99.90
4922;DHT22;16625;53.624;10.106;2022-11-14T06:53:34;6.90;99.90
4922;DHT22;16625;53.624;10.106;2022-11-14T06:56:03;6.90;99.90
4922;DHT22;16625;53.624;10.106;2022-11-14T06:58:33;7.60;99.90
4922;DHT22;16625;53.624;10.106;2022-11-14T07:01:07;6.80;99.90
4922;DHT22;16625;53.624;10.106;2022-11-14T07:03:39;6.80;99.90
4922;DHT22;16625;53.624;10.106;2022-11-14T07:06:07;6.80;99.90
4922;DHT22;16625;53.624;10.106;2022-11-14T07:08:37;6.80;99.90
4922;DHT22;16625;53.624;10.106;2022-11-14T07:11:05;7.90;99.90
4922;DHT22;16625;53.624;10.106;2022-11-14T07:13:33;6.80;99.90
4922;DHT22;16625;53.624;10.106;2022-11-14T07:16:01;6.80;99.90
4922;DHT22;16625;53.624;10.106;2022-11-14T07:18:29;6.80;99.90
4922;DHT22;16625;53.624;10.106;2022-11-14T07:20:59;6.80;99.90
4922;DHT22;16625;53.624;10.106;2022-11-14T07:23:27;6.80;99.90
4922;DHT22;16625;53.624;10.106;2022-11-14T07:25:54;6.80;99.90
4922;DHT22;16625;53.624;10.106;2022-11-14T07:28:21;6.80;99.90
4922;DHT22;16625;53.624;10.106;2022-11-14T07:30:48;7.30;99.90
4922;DHT22;16625;53.624;10.106;2022-11-14T07:33:15;7.20;99.90
4922;DHT22;16625;53.624;10.106;2022-11-14T07:35:41;6.80;99.90
4922;DHT22;16625;53.624;10.106;2022-11-14T07:38:10;6.80;99.90
4922;DHT22;16625;53.624;10.106;2022-11-14T07:40:39;6.80;99.90
4922;DHT22;16625;53.624;10.106;2022-11-14T07:43:09;6.80;99.90
4922;DHT22;16625;53.624;10.106;2022-11-14T07:45:38;6.80;99.90
4922;DHT22;16625;53.624;10.106;2022-11-14T07:48:05;6.80;99.90
4922;DHT22;16625;53.624;10.106;2022-11-14T07:50:33;7.10;99.90
4922;DHT22;16625;53.624;10.106;2022-11-14T07:53:03;6.80;99.90
4922;DHT22;16625;53.624;10.106;2022-11-14T07:55:33;6.80;99.90
4922;DHT22;16625;53.624;10.106;2022-11-14T07:58:00;6.70;99.90
4922;DHT22;16625;53.624;10.106;2022-11-14T08:00:27;6.80;99.90
4922;DHT22;16625;53.624;10.106;2022-11-14T08:02:55;7.60;99.90
4922;DHT22;16625;53.624;10.106;2022-11-14T08:05:22;6.80;99.90
4922;DHT22;16625;53.624;10.106;2022-11-14T08:07:50;6.80;99.90
4922;DHT22;16625;53.624;10.106;2022-11-14T08:10:17;6.80;99.90
4922;DHT22;16625;53.624;10.106;2022-11-14T08:12:56;6.80;99.90
4922;DHT22;16625;53.624;10.106;2022-11-14T08:15:23;6.90;99.90
4922;DHT22;16625;53.624;10.106;2022-11-14T08:17:50;6.90;99.90
4922;DHT22;16625;53.624;10.106;2022-11-14T08:20:19;7.50;99.90
4922;DHT22;16625;53.624;10.106;2022-11-14T08:22:46;7.30;99.90
4922;DHT22;16625;53.624;10.106;2022-11-14T08:25:15;7.00;99.90
4922;DHT22;16625;53.624;10.106;2022-11-14T08:27:42;6.90;99.90
4922;DHT22;16625;53.624;10.106;2022-11-14T08:30:12;6.90;99.90
4922;DHT22;16625;53.624;10.106;2022-11-14T08:32:48;7.00;99.90
4922;DHT22;16625;53.624;10.106;2022-11-14T08:35:15;7.00;99.90
4922;DHT22;16625;53.624;10.106;2022-11-14T08:37:44;7.00;99.90
4922;DHT22;16625;53.624;10.106;2022-11-14T08:40:12;7.00;99.90
4922;DHT22;16625;53.624;10.106;2022-11-14T08:42:39;7.10;99.90
4922;DHT22;16625;53.624;10.106;2022-11-14T08:45:09;7.40;99.90
4922;DHT22;16625;53.624;10.106;2022-11-14T08:47:37;7.10;99.90
4922;DHT22;16625;53.624;10.106;2022-11-14T08:50:05;7.10;99.90
4922;DHT22;16625;53.624;10.106;2022-11-14T08:52:32;7.10;99.90
4922;DHT22;16625;53.624;10.106;2022-11-14T08:54:59;7.00;99.90
4922;DHT22;16625;53.624;10.106;2022-11-14T08:57:26;7.00;99.90
4922;DHT22;16625;53.624;10.106;2022-11-14T08:59:55;7.20;99.90
4922;DHT22;16625;53.624;10.106;2022-11-14T09:02:22;7.10;99.90
4922;DHT22;16625;53.624;10.106;2022-11-14T09:04:50;7.10;99.90
4922;DHT22;16625;53.624;10.106;2022-11-14T09:07:17;7.10;99.90
4922;DHT22;16625;53.624;10.106;2022-11-14T09:09:44;7.00;99.90
4922;DHT22;16625;53.624;10.106;2022-11-14T09:12:13;7.10;99.90
4922;DHT22;16625;53.624;10.106;2022-11-14T09:14:41;7.70;99.90
4922;DHT22;16625;53.624;10.106;2022-11-14T09:17:08;7.10;99.90
4922;DHT22;16625;53.624;10.106;2022-11-14T09:19:35;7.10;99.90
4922;DHT22;16625;53.624;10.106;2022-11-14T09:22:04;7.10;99.90
4922;DHT22;16625;53.624;10.106;2022-11-14T09:24:31;7.10;99.90
4922;DHT22;16625;53.624;10.106;2022-11-14T09:26:58;7.10;99.90
4922;DHT22;16625;53.624;10.106;2022-11-14T09:29:26;7.10;99.90
4922;DHT22;16625;53.624;10.106;2022-11-14T09:31:53;7.10;99.90
4922;DHT22;16625;53.624;10.106;2022-11-14T09:34:21;7.40;99.90
4922;DHT22;16625;53.624;10.106;2022-11-14T09:36:50;7.20;99.90
4922;DHT22;16625;53.624;10.106;2022-11-14T09:39:19;7.10;99.90
4922;DHT22;16625;53.624;10.106;2022-11-14T09:41:56;7.10;99.90
4922;DHT22;16625;53.624;10.106;2022-11-14T09:44:54;7.20;99.90
4922;DHT22;16625;53.624;10.106;2022-11-14T09:47:24;7.30;99.90
4922;DHT22;16625;53.624;10.106;2022-11-14T09:49:55;7.30;99.90
4922;DHT22;16625;53.624;10.106;2022-11-14T09:52:34;7.90;99.90
4922;DHT22;16625;53.624;10.106;2022-11-14T09:55:09;7.90;99.90
4922;DHT22;16625;53.624;10.106;2022-11-14T09:57:37;7.50;99.90
4922;DHT22;16625;53.624;10.106;2022-11-14T10:00:12;8.70;99.90
4922;DHT22;16625;53.624;10.106;2022-11-14T10:02:44;7.60;99.90
4922;DHT22;16625;53.624;10.106;2022-11-14T10:08:36;7.60;99.90
4922;DHT22;16625;53.624;10.106;2022-11-14T10:11:12;7.70;99.90
4922;DHT22;16625;53.624;10.106;2022-11-14T10:14:17;7.60;99.90
4922;DHT22;16625;53.624;10.106;2022-11-14T10:16:53;7.70;99.90
4922;DHT22;16625;53.624;10.106;2022-11-14T10:19:28;7.70;99.90
4922;DHT22;16625;53.624;10.106;2022-11-14T10:22:08;7.80;99.90
4922;DHT22;16625;53.624;10.106;2022-11-14T10:24:59;7.80;99.90
4922;DHT22;16625;53.624;10.106;2022-11-14T10:27:32;7.80;99.90
4922;DHT22;16625;53.624;10.106;2022-11-14T10:30:07;7.80;99.90
4922;DHT22;16625;53.624;10.106;2022-11-14T10:32:45;7.90;99.90
4922;DHT22;16625;53.624;10.106;2022-11-14T10:35:18;7.90;99.90
4922;DHT22;16625;53.624;10.106;2022-11-14T10:37:52;8.00;99.90
4922;DHT22;16625;53.624;10.106;2022-11-14T10:40:29;8.30;99.90
4922;DHT22;16625;53.624;10.106;2022-11-14T10:43:02;8.10;99.90
4922;DHT22;16625;53.624;10.106;2022-11-14T10:45:34;9.10;99.90
4922;DHT22;16625;53.624;10.106;2022-11-14T10:48:08;8.40;99.90
4922;DHT22;16625;53.624;10.106;2022-11-14T10:50:41;8.40;99.90
4922;DHT22;16625;53.624;10.106;2022-11-14T10:53:31;8.50;99.90
4922;DHT22;16625;53.624;10.106;2022-11-14T10:55:59;8.50;99.90
4922;DHT22;16625;53.624;10.106;2022-11-14T10:58:28;8.60;99.90
4922;DHT22;16625;53.624;10.106;2022-11-14T11:00:55;8.60;99.90
4922;DHT22;16625;53.624;10.106;2022-11-14T11:03:40;8.70;99.90
4922;DHT22;16625;53.624;10.106;2022-11-14T11:06:23;9.30;99.90
4922;DHT22;16625;53.624;10.106;2022-11-14T11:08:51;9.00;99.90
4922;DHT22;16625;53.624;10.106;2022-11-14T11:11:38;8.90;99.90
4922;DHT22;16625;53.624;10.106;2022-11-14T11:14:16;8.80;48.40
4922;DHT22;16625;53.624;10.106;2022-11-14T11:16:45;9.00;55.40
4922;DHT22;16625;53.624;10.106;2022-11-14T11:19:17;8.90;25.20
4922;DHT22;16625;53.624;10.106;2022-11-14T11:21:50;9.40;48.70
4922;DHT22;16625;53.624;10.106;2022-11-14T11:24:33;9.00;1.00
4922;DHT22;16625;53.624;10.106;2022-11-14T11:27:19;9.20;1.00
4922;DHT22;16625;53.624;10.106;2022-11-14T11:30:00;9.00;1.00
4922;DHT22;16625;53.624;10.106;2022-11-14T11:32:28;9.40;1.00
4922;DHT22;16625;53.624;10.106;2022-11-14T11:34:55;9.00;1.00
4922;DHT22;16625;53.624;10.106;2022-11-14T11:37:25;9.00;1.00
4922;DHT22;16625;53.624;10.106;2022-11-14T11:39:57;9.00;1.00
4922;DHT22;16625;53.624;10.106;2022-11-14T11:42:31;9.10;1.00
4922;DHT22;16625;53.624;10.106;2022-11-14T11:45:04;9.10;1.00
4922;DHT22;16625;53.624;10.106;2022-11-14T11:47:35;9.20;1.00
4922;DHT22;16625;53.624;10.106;2022-11-14T11:50:10;9.20;1.00
4922;DHT22;16625;53.624;10.106;2022-11-14T11:52:44;9.20;1.00
4922;DHT22;16625;53.624;10.106;2022-11-14T11:55:15;9.30;1.00
4922;DHT22;16625;53.624;10.106;2022-11-14T11:57:46;9.20;1.00
4922;DHT22;16625;53.624;10.106;2022-11-14T12:00:19;9.30;1.00
4922;DHT22;16625;53.624;10.106;2022-11-14T12:02:48;9.30;1.00
4922;DHT22;16625;53.624;10.106;2022-11-14T12:05:17;9.60;1.00
4922;DHT22;16625;53.624;10.106;2022-11-14T12:07:54;9.30;1.00
4922;DHT22;16625;53.624;10.106;2022-11-14T12:10:26;9.40;1.00
4922;DHT22;16625;53.624;10.106;2022-11-14T12:16:00;10.00;1.00
4922;DHT22;16625;53.624;10.106;2022-11-14T12:18:46;10.70;99.90
4922;DHT22;16625;53.624;10.106;2022-11-14T12:21:30;9.50;1.00
4922;DHT22;16625;53.624;10.106;2022-11-14T12:24:36;9.40;1.00
4922;DHT22;16625;53.624;10.106;2022-11-14T12:27:19;9.40;1.00
4922;DHT22;16625;53.624;10.106;2022-11-14T12:30:00;9.40;1.00
4922;DHT22;16625;53.624;10.106;2022-11-14T12:32:32;9.40;99.90
4922;DHT22;16625;53.624;10.106;2022-11-14T12:35:02;10.00;99.90
4922;DHT22;16625;53.624;10.106;2022-11-14T12:37:33;9.50;1.00
4922;DHT22;16625;53.624;10.106;2022-11-14T12:40:02;10.00;99.90
4922;DHT22;16625;53.624;10.106;2022-11-14T12:42:31;9.70;99.90
4922;DHT22;16625;53.624;10.106;2022-11-14T12:44:58;10.10;99.90
4922;DHT22;16625;53.624;10.106;2022-11-14T12:47:26;9.90;1.00
4922;DHT22;16625;53.624;10.106;2022-11-14T12:52:50;9.50;99.90
4922;DHT22;16625;53.624;10.106;2022-11-14T12:55:53;9.40;99.90
4922;DHT22;16625;53.624;10.106;2022-11-14T12:58:42;9.40;99.90
4922;DHT22;16625;53.624;10.106;2022-11-14T13:01:26;9.40;99.90
4922;DHT22;16625;53.624;10.106;2022-11-14T13:04:12;9.40;99.90
4922;DHT22;16625;53.624;10.106;2022-11-14T13:06:51;9.30;1.00
4922;DHT22;16625;53.624;10.106;2022-11-14T13:09:34;10.40;1.00
4922;DHT22;16625;53.624;10.106;2022-11-14T13:12:25;9.40;1.00
4922;DHT22;16625;53.624;10.106;2022-11-14T13:15:35;9.30;1.00
4922;DHT22;16625;53.624;10.106;2022-11-14T13:18:29;9.30;1.00
4922;DHT22;16625;53.624;10.106;2022-11-14T13:21:20;9.30;1.00
4922;DHT22;16625;53.624;10.106;2022-11-14T13:24:07;9.60;1.00
4922;DHT22;16625;53.624;10.106;2022-11-14T13:26:51;9.40;1.00
4922;DHT22;16625;53.624;10.106;2022-11-14T13:29:47;9.30;1.00
4922;DHT22;16625;53.624;10.106;2022-11-14T13:35:43;9.30;1.00
4922;DHT22;16625;53.624;10.106;2022-11-14T13:41:23;9.20;1.00
4922;DHT22;16625;53.624;10.106;2022-11-14T13:44:00;9.30;1.00
4922;DHT22;16625;53.624;10.106;2022-11-14T13:46:51;9.20;1.00
4922;DHT22;16625;53.624;10.106;2022-11-14T13:49:35;9.20;1.00
4922;DHT22;16625;53.624;10.106;2022-11-14T13:52:05;9.20;1.00
4922;DHT22;16625;53.624;10.106;2022-11-14T13:54:48;9.70;1.00
4922;DHT22;16625;53.624;10.106;2022-11-14T13:57:25;9.10;1.00
4922;DHT22;16625;53.624;10.106;2022-11-14T14:00:00;9.10;1.00
4922;DHT22;16625;53.624;10.106;2022-11-14T14:05:57;8.90;1.00
4922;DHT22;16625;53.624;10.106;2022-11-14T14:08:42;8.90;1.00
4922;DHT22;16625;53.624;10.106;2022-11-14T14:11:26;8.90;1.00
4922;DHT22;16625;53.624;10.106;2022-11-14T14:14:13;9.30;14.80
4922;DHT22;16625;53.624;10.106;2022-11-14T14:16:50;8.80;26.20
4922;DHT22;16625;53.624;10.106;2022-11-14T14:19:28;8.80;50.70
4922;DHT22;16625;53.624;10.106;2022-11-14T14:22:06;8.80;89.20
4922;DHT22;16625;53.624;10.106;2022-11-14T14:24:47;9.10;92.80
4922;DHT22;16625;53.624;10.106;2022-11-14T14:27:20;8.70;99.90
4922;DHT22;16625;53.624;10.106;2022-11-14T14:29:59;8.60;99.90
4922;DHT22;16625;53.624;10.106;2022-11-14T14:32:29;8.50;99.90
4922;DHT22;16625;53.624;10.106;2022-11-14T14:34:59;8.50;99.90
4922;DHT22;16625;53.624;10.106;2022-11-14T14:37:27;8.50;99.90
4922;DHT22;16625;53.624;10.106;2022-11-14T14:39:55;9.10;99.90
4922;DHT22;16625;53.624;10.106;2022-11-14T14:42:23;8.90;99.90
4922;DHT22;16625;53.624;10.106;2022-11-14T14:45:13;8.30;99.90
4922;DHT22;16625;53.624;10.106;2022-11-14T14:47:41;8.20;99.90
4922;DHT22;16625;53.624;10.106;2022-11-14T14:50:15;8.80;99.90
4922;DHT22;16625;53.624;10.106;2022-11-14T14:52:43;8.70;99.90
4922;DHT22;16625;53.624;10.106;2022-11-14T14:55:23;8.10;99.90
4922;DHT22;16625;53.624;10.106;2022-11-14T14:57:50;8.50;99.90
4922;DHT22;16625;53.624;10.106;2022-11-14T15:00:21;8.60;99.90
4922;DHT22;16625;53.624;10.106;2022-11-14T15:02:51;7.90;99.90
4922;DHT22;16625;53.624;10.106;2022-11-14T15:05:23;7.70;99.90
4922;DHT22;16625;53.624;10.106;2022-11-14T15:07:54;9.00;99.90
4922;DHT22;16625;53.624;10.106;2022-11-14T15:10:24;7.70;99.90
4922;DHT22;16625;53.624;10.106;2022-11-14T15:12:54;7.60;99.90
4922;DHT22;16625;53.624;10.106;2022-11-14T15:15:24;7.60;99.90
4922;DHT22;16625;53.624;10.106;2022-11-14T15:17:53;7.50;99.90
4922;DHT22;16625;53.624;10.106;2022-11-14T15:20:24;7.50;99.90
4922;DHT22;16625;53.624;10.106;2022-11-14T15:23:02;7.50;99.90
4922;DHT22;16625;53.624;10.106;2022-11-14T15:25:29;7.80;99.90
4922;DHT22;16625;53.624;10.106;2022-11-14T15:27:56;8.00;99.90
4922;DHT22;16625;53.624;10.106;2022-11-14T15:30:33;8.30;99.90
4922;DHT22;16625;53.624;10.106;2022-11-14T15:33:02;7.20;99.90
4922;DHT22;16625;53.624;10.106;2022-11-14T15:35:31;7.20;99.90
4922;DHT22;16625;53.624;10.106;2022-11-14T15:38:17;7.80;99.90
4922;DHT22;16625;53.624;10.106;2022-11-14T15:41:14;8.10;99.90
4922;DHT22;16625;53.624;10.106;2022-11-14T15:43:49;7.00;99.90
4922;DHT22;16625;53.624;10.106;2022-11-14T15:46:50;6.90;99.90
4922;DHT22;16625;53.624;10.106;2022-11-14T15:49:21;6.80;99.90
4922;DHT22;16625;53.624;10.106;2022-11-14T15:51:51;6.80;99.90
4922;DHT22;16625;53.624;10.106;2022-11-14T15:54:52;6.80;99.90
4922;DHT22;16625;53.624;10.106;2022-11-14T15:57:20;6.70;99.90
4922;DHT22;16625;53.624;10.106;2022-11-14T15:59:47;6.80;99.90
4922;DHT22;16625;53.624;10.106;2022-11-14T16:02:16;7.90;99.90
4922;DHT22;16625;53.624;10.106;2022-11-14T16:04:44;6.50;99.90
4922;DHT22;16625;53.624;10.106;2022-11-14T16:07:13;6.50;99.90
4922;DHT22;16625;53.624;10.106;2022-11-14T16:09:40;6.80;99.90
4922;DHT22;16625;53.624;10.106;2022-11-14T16:12:07;6.40;99.90
4922;DHT22;16625;53.624;10.106;2022-11-14T16:14:35;6.40;99.90
4922;DHT22;16625;53.624;10.106;2022-11-14T16:17:03;6.50;99.90
4922;DHT22;16625;53.624;10.106;2022-11-14T16:19:30;6.90;99.90
4922;DHT22;16625;53.624;10.106;2022-11-14T16:21:58;6.70;99.90
4922;DHT22;16625;53.624;10.106;2022-11-14T16:24:27;6.40;99.90
4922;DHT22;16625;53.624;10.106;2022-11-14T16:26:55;6.50;99.90
4922;DHT22;16625;53.624;10.106;2022-11-14T16:29:23;6.40;99.90
4922;DHT22;16625;53.624;10.106;2022-11-14T16:31:52;6.30;99.90
4922;DHT22;16625;53.624;10.106;2022-11-14T16:34:25;6.30;99.90
4922;DHT22;16625;53.624;10.106;2022-11-14T16:36:57;6.30;99.90